createdAt,value
2023-02-13T00:00:47.773Z,1.60
2023-02-13T00:03:23.539Z,4.22
2023-02-13T00:05:50.866Z,1.35
2023-02-13T00:08:18.572Z,1.23
2023-02-13T00:10:46.932Z,1.35
2023-02-13T00:13:14.638Z,3.72
2023-02-13T00:15:41.994Z,1.23
2023-02-13T00:18:09.595Z,1.75
2023-02-13T00:20:37.121Z,1.20
2023-02-13T00:23:04.671Z,1.45
2023-02-13T00:25:31.921Z,1.10
2023-02-13T00:27:59.607Z,1.38
2023-02-13T00:30:28.030Z,1.23
2023-02-13T00:32:55.653Z,1.25
2023-02-13T00:35:24.628Z,1.20
2023-02-13T00:37:53.408Z,1.05
2023-02-13T00:40:25.047Z,1.40
2023-02-13T00:42:52.597Z,1.35
2023-02-13T00:45:19.825Z,1.27
2023-02-13T00:47:48.194Z,1.35
2023-02-13T00:50:15.759Z,1.38
2023-02-13T00:52:43.334Z,1.35
2023-02-13T00:55:10.566Z,1.60
2023-02-13T00:57:38.184Z,1.35
2023-02-13T01:00:16.378Z,1.30
2023-02-13T01:02:43.914Z,1.77
2023-02-13T01:05:11.975Z,1.17
2023-02-13T01:07:39.714Z,1.45
2023-02-13T01:10:07.471Z,1.77
2023-02-13T01:12:35.091Z,0.88
2023-02-13T01:15:02.935Z,1.08
2023-02-13T01:17:30.598Z,1.13
2023-02-13T01:19:57.895Z,1.67
2023-02-13T01:22:25.529Z,1.48
2023-02-13T01:24:52.829Z,1.67
2023-02-13T01:27:20.966Z,1.50
2023-02-13T01:29:48.803Z,2.25
2023-02-13T01:32:17.414Z,1.27
2023-02-13T01:34:45.387Z,1.67
2023-02-13T01:37:13.717Z,1.92
2023-02-13T01:39:41.017Z,1.45
2023-02-13T01:42:17.565Z,1.63
2023-02-13T01:44:55.016Z,1.20
2023-02-13T01:47:49.727Z,1.83
2023-02-13T01:50:30.541Z,1.58
2023-02-13T01:53:06.372Z,1.45
2023-02-13T01:55:37.995Z,1.05
2023-02-13T01:58:12.658Z,1.33
2023-02-13T02:00:40.415Z,1.23
2023-02-13T02:03:13.782Z,1.30
2023-02-13T02:05:42.922Z,1.67
2023-02-13T02:08:12.735Z,1.60
2023-02-13T02:10:41.090Z,1.95
2023-02-13T02:13:14.210Z,1.52
2023-02-13T02:15:43.274Z,2.05
2023-02-13T02:18:23.307Z,1.88
2023-02-13T02:21:43.037Z,2.17
2023-02-13T02:24:42.179Z,2.72
2023-02-13T02:27:33.578Z,2.53
2023-02-13T02:30:38.811Z,2.15
2023-02-13T02:33:27.861Z,2.15
2023-02-13T02:36:17.415Z,2.42
2023-02-13T02:39:09.083Z,2.97
2023-02-13T02:41:58.741Z,2.53
2023-02-13T02:44:52.465Z,1.98
2023-02-13T02:48:00.077Z,2.63
2023-02-13T02:50:40.287Z,2.20
2023-02-13T02:53:53.066Z,2.97
2023-02-13T02:59:30.085Z,4.10
2023-02-13T03:02:19.925Z,2.65
2023-02-13T03:05:13.473Z,2.00
2023-02-13T03:07:41.015Z,2.22
2023-02-13T03:10:30.612Z,1.75
2023-02-13T03:13:21.828Z,1.90
2023-02-13T03:16:11.624Z,2.45
2023-02-13T03:19:01.039Z,2.15
2023-02-13T03:22:08.319Z,2.10
2023-02-13T03:24:58.613Z,2.22
2023-02-13T03:27:56.837Z,2.97
2023-02-13T03:30:39.120Z,8.70
2023-02-13T03:33:32.124Z,2.22
2023-02-13T03:36:33.621Z,2.15
2023-02-13T03:39:16.334Z,2.30
2023-02-13T03:41:53.138Z,2.67
2023-02-13T03:44:31.248Z,2.15
2023-02-13T03:47:00.993Z,2.00
2023-02-13T03:49:55.739Z,2.08
2023-02-13T03:52:46.031Z,2.00
2023-02-13T03:55:38.783Z,2.85
2023-02-13T03:58:31.742Z,2.65
2023-02-13T04:01:02.870Z,2.25
2023-02-13T04:03:45.232Z,2.15
2023-02-13T04:06:16.947Z,2.17
2023-02-13T04:08:44.206Z,1.73
2023-02-13T04:11:49.808Z,2.70
2023-02-13T04:14:35.746Z,2.72
2023-02-13T04:17:08.410Z,2.30
2023-02-13T04:19:35.944Z,1.92
2023-02-13T04:22:03.667Z,2.00
2023-02-13T04:24:31.499Z,2.28
2023-02-13T04:26:59.418Z,2.33
2023-02-13T04:29:27.340Z,1.98
2023-02-13T04:31:55.066Z,2.13
2023-02-13T04:34:22.405Z,2.58
2023-02-13T04:36:50.039Z,2.00
2023-02-13T04:39:17.240Z,2.38
2023-02-13T04:41:44.931Z,1.90
2023-02-13T04:44:12.331Z,2.72
2023-02-13T04:46:40.035Z,2.10
2023-02-13T04:49:07.302Z,2.45
2023-02-13T04:51:34.852Z,2.33
2023-02-13T04:54:02.153Z,2.33
2023-02-13T04:56:29.771Z,2.72
2023-02-13T04:58:57.003Z,6.18
2023-02-13T05:01:24.666Z,5.07
2023-02-13T05:03:52.000Z,2.30
2023-02-13T05:06:19.658Z,2.10
2023-02-13T05:08:46.903Z,1.98
2023-02-13T05:11:14.463Z,1.77
2023-02-13T05:13:41.855Z,2.10
2023-02-13T05:16:09.564Z,1.73
2023-02-13T05:18:36.863Z,2.05
2023-02-13T05:21:22.980Z,6.03
2023-02-13T05:23:50.240Z,2.47
2023-02-13T05:26:17.816Z,2.20
2023-02-13T05:29:03.800Z,2.05
2023-02-13T05:31:31.407Z,1.75
2023-02-13T05:33:58.634Z,1.83
2023-02-13T05:36:26.223Z,1.88
2023-02-13T05:38:53.455Z,1.83
2023-02-13T05:41:20.996Z,2.33
2023-02-13T05:43:48.229Z,1.95
2023-02-13T05:46:15.928Z,2.50
2023-02-13T05:48:43.190Z,2.08
2023-02-13T05:51:10.708Z,2.28
2023-02-13T05:53:38.312Z,2.35
2023-02-13T05:56:06.460Z,2.40
2023-02-13T05:58:34.399Z,2.33
2023-02-13T06:01:02.440Z,2.63
2023-02-13T06:03:31.282Z,2.58
2023-02-13T06:05:59.582Z,3.00
2023-02-13T06:08:26.935Z,2.50
2023-02-13T06:10:54.692Z,2.05
2023-02-13T06:13:21.932Z,2.22
2023-02-13T06:15:50.872Z,2.50
2023-02-13T06:18:18.208Z,2.42
2023-02-13T06:20:45.915Z,1.88
2023-02-13T06:23:13.720Z,2.28
2023-02-13T06:25:41.250Z,1.65
2023-02-13T06:28:08.584Z,2.10
2023-02-13T06:30:36.258Z,1.52
2023-02-13T06:33:03.698Z,1.80
2023-02-13T06:35:31.333Z,1.20
2023-02-13T06:37:58.573Z,1.90
2023-02-13T06:40:26.301Z,1.65
2023-02-13T06:42:53.644Z,1.75
2023-02-13T06:45:21.194Z,1.65
2023-02-13T06:47:49.233Z,2.00
2023-02-13T06:50:17.597Z,1.63
2023-02-13T06:52:49.949Z,1.95
2023-02-13T06:55:17.908Z,1.90
2023-02-13T06:57:45.848Z,1.75
2023-02-13T07:00:15.615Z,1.67
2023-02-13T07:02:44.602Z,1.58
2023-02-13T07:05:13.383Z,1.50
2023-02-13T07:07:42.439Z,1.30
2023-02-13T07:10:12.615Z,1.80
2023-02-13T07:12:40.127Z,1.23
2023-02-13T07:15:08.318Z,1.50
2023-02-13T07:17:36.893Z,1.52
2023-02-13T07:20:06.321Z,1.73
2023-02-13T07:22:33.636Z,1.73
2023-02-13T07:25:01.648Z,2.38
2023-02-13T07:27:29.493Z,1.67
2023-02-13T07:29:57.770Z,1.80
2023-02-13T07:32:25.745Z,1.52
2023-02-13T07:35:01.634Z,1.17
2023-02-13T07:37:31.401Z,1.60
2023-02-13T07:39:59.038Z,1.52
2023-02-13T07:42:26.354Z,1.33
2023-02-13T07:44:53.896Z,1.73
2023-02-13T07:47:21.118Z,1.13
2023-02-13T07:49:48.625Z,1.35
2023-02-13T07:52:15.845Z,1.23
2023-02-13T07:54:47.706Z,1.17
2023-02-13T07:59:43.366Z,1.10
2023-02-13T08:02:14.783Z,1.52
2023-02-13T08:04:49.075Z,1.17
2023-02-13T08:07:17.923Z,1.23
2023-02-13T08:10:05.018Z,2.30
2023-02-13T08:12:35.051Z,1.70
2023-02-13T08:15:03.898Z,1.60
2023-02-13T08:17:31.109Z,1.63
2023-02-13T08:19:58.885Z,1.90
2023-02-13T08:22:26.299Z,1.50
2023-02-13T08:24:54.306Z,1.67
2023-02-13T08:27:23.087Z,1.20
2023-02-13T08:29:51.324Z,1.50
2023-02-13T08:32:18.719Z,1.23
2023-02-13T08:34:46.428Z,1.42
2023-02-13T08:37:13.630Z,1.35
2023-02-13T08:39:41.261Z,1.55
2023-02-13T08:42:08.676Z,1.98
2023-02-13T08:44:37.451Z,1.70
2023-02-13T08:47:04.657Z,1.48
2023-02-13T08:49:32.580Z,1.40
2023-02-13T08:52:04.529Z,1.70
2023-02-13T08:54:34.440Z,1.58
2023-02-13T08:57:01.912Z,2.00
2023-02-13T08:59:29.617Z,1.58
2023-02-13T09:01:58.191Z,1.50
2023-02-13T09:04:25.669Z,1.52
2023-02-13T09:06:53.043Z,1.33
2023-02-13T09:09:20.828Z,1.55
2023-02-13T09:11:48.190Z,1.88
2023-02-13T09:14:15.732Z,1.50
2023-02-13T09:16:43.050Z,1.60
2023-02-13T09:19:10.666Z,1.67
2023-02-13T09:21:37.841Z,2.45
2023-02-13T09:24:10.535Z,1.88
2023-02-13T09:26:38.158Z,2.08
2023-02-13T09:29:05.632Z,1.88
2023-02-13T09:31:33.062Z,1.65
2023-02-13T09:34:00.930Z,1.60
2023-02-13T09:36:28.208Z,2.00
2023-02-13T09:38:57.703Z,1.58
2023-02-13T09:41:33.664Z,1.60
2023-02-13T09:44:07.363Z,1.83
2023-02-13T09:46:38.182Z,1.38
2023-02-13T09:49:14.034Z,2.15
2023-02-13T09:51:47.828Z,1.58
2023-02-13T09:54:19.210Z,2.10
2023-02-13T09:56:50.189Z,1.73
2023-02-13T09:59:51.591Z,1.67
2023-02-13T10:02:21.789Z,1.35
2023-02-13T10:05:10.781Z,1.42
2023-02-13T10:07:57.839Z,1.27
2023-02-13T10:10:25.450Z,1.10
2023-02-13T10:13:03.626Z,1.02
2023-02-13T10:16:09.230Z,1.23
2023-02-13T10:18:50.574Z,1.45
2023-02-13T10:21:24.814Z,0.90
2023-02-13T10:23:56.372Z,0.93
2023-02-13T10:29:35.007Z,0.80
2023-02-13T10:32:09.255Z,1.10
2023-02-13T10:34:44.384Z,1.25
2023-02-13T10:37:20.991Z,1.23
2023-02-13T10:39:51.449Z,0.90
2023-02-13T10:42:41.547Z,1.13
2023-02-13T10:45:53.690Z,1.00
2023-02-13T10:51:13.409Z,0.98
2023-02-13T10:53:40.810Z,1.15
2023-02-13T10:56:23.938Z,1.13
2023-02-13T10:59:28.980Z,0.68
2023-02-13T11:02:21.009Z,0.50
2023-02-13T11:04:50.945Z,0.90
2023-02-13T11:07:22.130Z,0.70
2023-02-13T11:09:53.361Z,0.60
2023-02-13T11:12:23.792Z,1.20
2023-02-13T11:15:04.281Z,0.98
2023-02-13T11:17:36.380Z,0.88
2023-02-13T11:20:28.511Z,0.98
2023-02-13T11:22:57.317Z,1.02
2023-02-13T11:25:31.655Z,1.00
2023-02-13T11:28:16.571Z,0.95
2023-02-13T11:30:44.154Z,0.77
2023-02-13T11:33:17.552Z,1.27
2023-02-13T11:35:46.951Z,1.60
2023-02-13T11:38:18.328Z,1.02
2023-02-13T11:40:50.204Z,0.85
2023-02-13T11:43:28.496Z,1.08
2023-02-13T11:46:07.097Z,0.88
2023-02-13T11:48:35.365Z,0.93
2023-02-13T11:51:04.301Z,1.17
2023-02-13T11:53:39.547Z,1.00
2023-02-13T11:56:11.066Z,0.95
2023-02-13T11:58:39.347Z,1.40
2023-02-13T12:01:20.945Z,1.27
2023-02-13T12:04:07.805Z,0.98
2023-02-13T12:06:40.008Z,1.00
2023-02-13T12:09:15.721Z,1.20
2023-02-13T12:11:49.925Z,0.88
2023-02-13T12:14:21.592Z,1.35
2023-02-13T12:17:00.623Z,1.15
2023-02-13T12:19:41.275Z,1.00
2023-02-13T12:22:18.864Z,1.13
2023-02-13T12:24:52.268Z,1.00
2023-02-13T12:27:46.341Z,1.00
2023-02-13T12:30:39.760Z,0.80
2023-02-13T12:33:22.383Z,0.93
2023-02-13T12:35:50.145Z,1.15
2023-02-13T12:38:47.212Z,0.70
2023-02-13T12:41:18.931Z,0.75
2023-02-13T12:44:00.730Z,0.70
2023-02-13T12:46:54.446Z,0.60
2023-02-13T12:49:46.346Z,0.90
2023-02-13T12:52:20.075Z,0.75
2023-02-13T12:55:03.647Z,0.63
2023-02-13T12:58:00.880Z,0.90
2023-02-13T13:01:06.178Z,0.90
2023-02-13T13:03:51.760Z,1.02
2023-02-13T13:06:46.732Z,0.70
2023-02-13T13:09:20.000Z,0.85
2023-02-13T13:12:09.557Z,0.90
2023-02-13T13:14:53.972Z,0.70
2023-02-13T13:17:24.199Z,0.93
2023-02-13T13:20:14.986Z,0.43
2023-02-13T13:23:21.484Z,0.57
2023-02-13T13:25:55.753Z,1.13
2023-02-13T13:28:26.291Z,1.08
2023-02-13T13:30:53.905Z,1.10
2023-02-13T13:33:24.291Z,0.80
2023-02-13T13:36:06.945Z,0.82
2023-02-13T13:38:52.018Z,0.90
2023-02-13T13:41:38.889Z,2.40
2023-02-13T13:44:18.793Z,1.25
2023-02-13T13:46:54.996Z,1.38
2023-02-13T13:49:45.364Z,1.00
2023-02-13T13:52:37.582Z,0.90
2023-02-13T13:55:07.032Z,0.95
2023-02-13T13:57:34.285Z,1.00
2023-02-13T14:00:14.125Z,1.60
2023-02-13T14:02:44.780Z,1.60
2023-02-13T14:05:30.821Z,1.23
2023-02-13T14:08:01.659Z,1.23
2023-02-13T14:10:29.377Z,1.20
2023-02-13T14:12:56.552Z,1.13
2023-02-13T14:15:44.668Z,1.10
2023-02-13T14:18:15.140Z,1.38
2023-02-13T14:20:52.439Z,1.30
2023-02-13T14:23:50.844Z,1.17
2023-02-13T14:26:18.470Z,1.00
2023-02-13T14:28:48.755Z,1.00
2023-02-13T14:31:35.666Z,1.52
2023-02-13T14:34:05.534Z,1.23
2023-02-13T14:36:36.140Z,0.80
2023-02-13T14:39:03.485Z,1.20
2023-02-13T14:41:55.198Z,1.20
2023-02-13T14:44:34.103Z,1.02
2023-02-13T14:47:05.876Z,1.20
2023-02-13T14:49:37.231Z,1.65
2023-02-13T14:52:07.739Z,1.70
2023-02-13T14:54:42.683Z,1.52
2023-02-13T14:57:38.892Z,1.92
2023-02-13T15:00:28.752Z,15.13
2023-02-13T15:03:02.544Z,11.52
2023-02-13T15:05:35.062Z,2.22
2023-02-13T15:08:05.444Z,2.15
2023-02-13T15:10:49.520Z,1.90
2023-02-13T15:13:21.917Z,1.95
2023-02-13T15:15:59.512Z,2.10
2023-02-13T15:18:52.546Z,2.25
2023-02-13T15:21:22.900Z,2.10
2023-02-13T15:23:55.519Z,1.77
2023-02-13T15:26:26.509Z,1.90
2023-02-13T15:29:07.429Z,1.60
2023-02-13T15:31:38.872Z,1.80
2023-02-13T15:34:34.308Z,1.67
2023-02-13T15:37:03.129Z,2.13
2023-02-13T15:39:32.320Z,1.52
2023-02-13T15:42:02.887Z,2.60
2023-02-13T15:44:34.446Z,1.75
2023-02-13T15:47:15.722Z,1.75
2023-02-13T15:49:46.986Z,2.00
2023-02-13T15:52:31.875Z,1.70
2023-02-13T15:55:00.089Z,1.95
2023-02-13T15:57:28.627Z,2.10
2023-02-13T15:59:58.807Z,1.95
2023-02-13T16:02:42.288Z,2.40
2023-02-13T16:05:13.068Z,1.80
2023-02-13T16:08:01.462Z,1.88
2023-02-13T16:10:35.582Z,2.20
2023-02-13T16:13:06.074Z,2.83
2023-02-13T16:15:37.207Z,2.58
2023-02-13T16:18:06.398Z,1.90
2023-02-13T16:20:35.342Z,2.10
2023-02-13T16:23:16.819Z,2.38
2023-02-13T16:25:46.670Z,2.30
2023-02-13T16:28:21.157Z,2.70
2023-02-13T16:30:59.471Z,2.53
2023-02-13T16:33:32.147Z,2.45
2023-02-13T16:36:11.931Z,2.88
2023-02-13T16:38:44.498Z,3.17
2023-02-13T16:41:25.912Z,2.92
2023-02-13T16:44:00.648Z,2.97
2023-02-13T16:46:28.179Z,2.70
2023-02-13T16:49:01.305Z,2.47
2023-02-13T16:51:50.557Z,3.53
2023-02-13T16:54:34.188Z,2.53
2023-02-13T16:57:04.334Z,2.85
2023-02-13T16:59:40.456Z,3.35
2023-02-13T17:02:14.501Z,2.83
2023-02-13T17:04:56.668Z,3.13
2023-02-13T17:07:33.975Z,2.45
2023-02-13T17:10:05.257Z,3.25
2023-02-13T17:12:38.975Z,2.67
2023-02-13T17:15:12.394Z,5.05
2023-02-13T17:17:40.573Z,2.72
2023-02-13T17:20:15.731Z,2.88
2023-02-13T17:22:47.589Z,3.08
2023-02-13T17:25:23.544Z,3.00
2023-02-13T17:27:56.910Z,2.70
2023-02-13T17:30:33.211Z,3.13
2023-02-13T17:33:07.698Z,3.35
2023-02-13T17:35:35.572Z,3.42
2023-02-13T17:38:03.474Z,3.70
2023-02-13T17:40:32.040Z,3.42
2023-02-13T17:42:59.835Z,3.60
2023-02-13T17:45:31.904Z,3.40
2023-02-13T17:47:59.589Z,7.50
2023-02-13T17:50:28.666Z,3.20
2023-02-13T17:52:57.449Z,3.53
2023-02-13T17:55:27.294Z,3.58
2023-02-13T17:57:56.837Z,3.22
2023-02-13T18:00:35.546Z,3.75
2023-02-13T18:03:04.194Z,4.13
2023-02-13T18:05:33.204Z,3.92
2023-02-13T18:08:03.534Z,4.32
2023-02-13T18:10:33.697Z,3.50
2023-02-13T18:13:05.040Z,3.75
2023-02-13T18:15:39.143Z,3.97
2023-02-13T18:18:06.779Z,4.25
2023-02-13T18:20:34.867Z,3.97
2023-02-13T18:23:02.474Z,3.85
2023-02-13T18:25:30.048Z,3.70
2023-02-13T18:27:57.739Z,4.05
2023-02-13T18:30:25.560Z,4.05
2023-02-13T18:32:55.590Z,4.18
2023-02-13T18:35:23.585Z,5.60
2023-02-13T18:37:51.277Z,3.88
2023-02-13T18:40:19.042Z,4.20
2023-02-13T18:42:46.763Z,3.67
2023-02-13T18:45:14.208Z,3.72
2023-02-13T18:47:42.189Z,4.45
2023-02-13T18:50:10.019Z,4.82
2023-02-13T18:52:37.650Z,4.20
2023-02-13T18:55:07.172Z,4.32
2023-02-13T18:57:35.134Z,4.57
2023-02-13T19:00:04.617Z,4.95
2023-02-13T19:02:33.518Z,4.78
2023-02-13T19:05:01.445Z,4.35
2023-02-13T19:07:29.393Z,5.40
2023-02-13T19:09:56.751Z,4.20
2023-02-13T19:12:24.713Z,4.93
2023-02-13T19:14:52.054Z,4.38
2023-02-13T19:17:19.638Z,4.47
2023-02-13T19:19:48.860Z,4.65
2023-02-13T19:22:16.737Z,5.13
2023-02-13T19:24:44.365Z,4.82
2023-02-13T19:27:12.048Z,5.07
2023-02-13T19:29:39.306Z,3.95
2023-02-13T19:32:06.839Z,4.65
2023-02-13T19:34:34.328Z,5.00
2023-02-13T19:37:01.899Z,4.72
2023-02-13T19:39:29.176Z,5.93
2023-02-13T19:41:56.831Z,4.95
2023-02-13T19:44:24.183Z,4.30
2023-02-13T19:46:51.945Z,4.55
2023-02-13T19:49:21.136Z,4.82
2023-02-13T19:51:48.830Z,4.47
2023-02-13T19:54:16.044Z,4.72
2023-02-13T19:56:43.892Z,4.88
2023-02-13T19:59:13.533Z,4.43
2023-02-13T20:01:42.972Z,4.55
2023-02-13T20:04:11.778Z,4.18
2023-02-13T20:06:39.602Z,4.18
2023-02-13T20:09:15.912Z,3.92
2023-02-13T20:11:45.475Z,4.68
2023-02-13T20:14:15.128Z,5.00
2023-02-13T20:16:45.703Z,4.90
2023-02-13T20:19:13.794Z,3.78
2023-02-13T20:21:42.572Z,4.45
2023-02-13T20:24:11.097Z,5.25
2023-02-13T20:26:39.604Z,5.10
2023-02-13T20:29:07.378Z,4.78
2023-02-13T20:31:35.696Z,4.47
2023-02-13T20:34:06.131Z,5.22
2023-02-13T20:36:33.916Z,4.25
2023-02-13T20:39:04.794Z,4.65
2023-02-13T20:41:34.761Z,3.55
2023-02-13T20:44:05.326Z,4.43
2023-02-13T20:46:35.201Z,4.47
2023-02-13T20:49:02.689Z,5.47
2023-02-13T20:51:30.481Z,4.78
2023-02-13T20:53:59.092Z,5.63
2023-02-13T20:56:28.410Z,4.70
2023-02-13T20:58:58.554Z,4.65
2023-02-13T21:01:32.573Z,4.82
2023-02-13T21:04:00.149Z,4.35
2023-02-13T21:06:30.928Z,4.45
2023-02-13T21:08:58.597Z,5.28
2023-02-13T21:11:28.464Z,4.85
2023-02-13T21:13:57.394Z,5.07
2023-02-13T21:16:27.499Z,5.28
2023-02-13T21:18:57.866Z,4.80
2023-02-13T21:21:28.576Z,5.55
2023-02-13T21:23:57.340Z,5.05
2023-02-13T21:26:26.230Z,4.90
2023-02-13T21:28:54.227Z,4.55
2023-02-13T21:31:29.499Z,5.00
2023-02-13T21:34:06.198Z,5.53
2023-02-13T21:36:37.588Z,4.63
2023-02-13T21:39:07.350Z,5.30
2023-02-13T21:41:35.118Z,5.35
2023-02-13T21:44:02.403Z,5.10
2023-02-13T21:46:32.133Z,5.15
2023-02-13T21:49:05.169Z,5.18
2023-02-13T21:51:35.289Z,5.18
2023-02-13T21:54:04.316Z,4.88
2023-02-13T21:56:34.743Z,5.05
2023-02-13T21:59:02.398Z,5.75
2023-02-13T22:04:12.783Z,5.43
2023-02-13T22:06:40.665Z,4.53
2023-02-13T22:09:13.387Z,5.38
2023-02-13T22:11:41.938Z,6.13
2023-02-13T22:14:14.442Z,5.95
2023-02-13T22:16:42.685Z,4.95
2023-02-13T22:19:13.659Z,4.75
2023-02-13T22:21:41.766Z,4.63
2023-02-13T22:24:09.502Z,5.93
2023-02-13T22:26:40.199Z,5.38
2023-02-13T22:29:12.437Z,5.43
2023-02-13T22:31:40.818Z,5.28
2023-02-13T22:34:08.385Z,4.80
2023-02-13T22:36:39.197Z,5.05
2023-02-13T22:39:08.377Z,6.10
2023-02-13T22:41:36.031Z,5.40
2023-02-13T22:44:03.689Z,5.57
2023-02-13T22:46:32.691Z,5.45
2023-02-13T22:49:00.356Z,4.57
2023-02-13T22:51:31.553Z,5.25
2023-02-13T22:53:59.804Z,5.15
2023-02-13T22:56:29.492Z,5.20
2023-02-13T22:58:57.191Z,5.18
2023-02-13T23:01:27.086Z,5.68
2023-02-13T23:03:54.874Z,6.30
2023-02-13T23:06:23.564Z,5.60
2023-02-13T23:08:53.443Z,5.05
2023-02-13T23:11:44.548Z,5.57
2023-02-13T23:14:12.708Z,5.32
2023-02-13T23:17:00.183Z,5.65
2023-02-13T23:19:29.809Z,5.82
2023-02-13T23:21:58.827Z,5.50
2023-02-13T23:24:26.514Z,5.00
2023-02-13T23:26:54.141Z,5.25
2023-02-13T23:29:21.628Z,5.28
2023-02-13T23:31:49.418Z,5.47
2023-02-13T23:34:16.867Z,5.78
2023-02-13T23:36:44.484Z,5.38
2023-02-13T23:39:11.835Z,5.72
2023-02-13T23:41:39.662Z,4.88
2023-02-13T23:44:06.906Z,5.35
2023-02-13T23:46:34.569Z,5.47
2023-02-13T23:49:02.060Z,4.85
2023-02-13T23:51:29.703Z,5.25
2023-02-13T23:53:57.540Z,5.75
2023-02-13T23:56:25.588Z,4.85
2023-02-13T23:58:55.744Z,5.03
